Latest Weather Observations for Argyle

IDW60801

Issued at 10:04 am WST Thursday 19 January 2017 (issued every 30 minutes, with the page automatically refreshed every 10 minutes)

About weather observations | Map of weather stations | Latest weather observations for WA | Other Formats
Station Details ID: 002064 Name: ARGYLE AERODROME Lat: -16.64 Lon: 128.45 Height: 164.0 m
Data from the previous 72 hours. | See also: Recent months at Argyle
Date/Time
WST
Temp
°C
App
Temp
°C
Dew
Point
°C
Rel
Hum
%
Delta-T
°C
Wind Press
QNH
hPa
Press
MSL
hPa
Rain since
9am
mm
Dir  Spd
km/h
Gust
km/h
Spd
kts
Gust
kts
19/10:00am 30.1 31.6 22.0 62 5.5 NNW 17 22 9 12 1010.0 - 0.0
19/09:41am 29.8 32.1 22.8 66 4.8 NNW 15 24 8 13 1010.2 - 0.0
19/09:21am 29.3 32.3 23.4 70 4.1 NW 13 20 7 11 1010.4 - 0.0
19/08:30am 27.3 30.9 23.8 81 2.4 NW 11 15 6 8 1011.0 - 10.2
19/08:10am 26.8 30.2 24.1 85 1.9 N 13 19 7 10 1011.1 - 10.2
19/08:00am 26.6 30.4 24.0 86 1.8 N 11 17 6 9 1011.1 - 10.2
19/07:00am 25.1 29.2 23.9 93 0.8 N 9 13 5 7 1010.9 - -
19/06:30am 24.7 28.3 23.8 95 0.6 N 11 15 6 8 1010.8 - 10.2
19/06:00am 24.6 28.2 23.7 95 0.6 N 11 15 6 8 1010.4 - 10.2
19/05:40am 24.5 27.6 23.5 94 0.7 N 13 15 7 8 1010.3 - 10.2
19/05:00am 24.6 27.6 23.4 93 0.8 N 13 20 7 11 1009.7 - 10.2
19/04:59am 24.6 27.6 23.3 92 0.9 N 13 20 7 11 1009.7 - 10.2
19/04:30am 24.3 26.9 23.3 94 0.7 N 15 20 8 11 1009.2 - 10.2
19/04:00am 24.2 27.7 23.5 96 0.5 NNW 11 15 6 8 1009.1 - 10.0
19/03:30am 24.1 27.9 23.5 96 0.4 N 9 13 5 7 1008.9 - 10.0
19/03:00am 24.3 27.7 23.3 94 0.7 N 11 15 6 8 1009.0 1007.7 9.8
19/02:03am 24.7 28.6 24.3 98 0.3 N 11 13 6 7 1009.4 - 9.8
19/02:00am 24.6 28.5 24.3 98 0.2 N 11 13 6 7 1009.5 - 9.8
19/01:30am 24.7 29.0 24.3 98 0.3 N 9 11 5 6 1009.9 - 8.8
19/01:24am 24.7 29.0 24.3 98 0.3 N 9 11 5 6 1010.0 - 8.6
19/01:00am 24.6 28.7 24.0 96 0.4 N 9 13 5 7 1010.0 - 8.4
19/12:30am 24.9 29.3 24.5 98 0.3 N 9 11 5 6 1010.0 - 8.2
19/12:00am 24.8 29.7 24.4 98 0.3 NNE 6 7 3 4 1010.2 - 8.0
 
Date/Time
WST
Temp
°C
App
Temp
°C
Dew
Point
°C
Rel
Hum
%
Delta-T
°C
Wind Press
QNH
hPa
Press
MSL
hPa
Rain since
9am
mm
Dir  Spd
km/h
Gust
km/h
Spd
kts
Gust
kts
18/11:30pm 24.5 29.1 24.1 98 0.3 NNE 7 9 4 5 1010.3 - 7.6
18/11:05pm 24.6 28.7 23.9 96 0.5 N 9 11 5 6 1010.7 - 7.0
18/11:00pm 24.6 28.7 23.9 96 0.5 N 9 11 5 6 1010.7 - 6.8
18/10:30pm 25.1 29.1 24.4 96 0.5 NNE 11 15 6 8 1010.7 - 6.6
18/10:29pm 25.0 29.4 24.4 96 0.4 NNE 9 15 5 8 1010.7 - 6.6
18/10:00pm 25.1 30.2 24.7 98 0.3 NE 6 9 3 5 1010.9 - 6.6
18/09:30pm 25.0 29.4 24.4 96 0.4 NE 9 11 5 6 1010.9 - 6.6
18/09:00pm 25.2 30.0 24.5 96 0.5 NNE 7 9 4 5 1010.6 - 6.6
18/08:30pm 25.1 31.2 24.4 96 0.5 CALM 0 6 0 3 1010.4 - 6.2
18/08:03pm 25.0 29.5 24.0 94 0.7 SE 7 11 4 6 1010.2 - 6.2
18/07:41pm 26.3 29.7 23.4 84 2.0 SSW 11 17 6 9 1010.2 - 3.6
18/07:30pm 26.3 29.5 23.1 82 2.2 SSW 11 19 6 10 1009.8 - 0.6
18/07:00pm 27.2 32.1 24.6 86 1.8 NE 7 11 4 6 1008.8 - 0.6
18/06:30pm 27.5 31.4 24.8 85 1.9 NE 13 17 7 9 1008.0 - 0.6
18/06:00pm 28.4 32.3 24.2 78 2.9 NE 11 20 6 11 1007.8 1006.5 0.6
18/05:30pm 29.6 32.3 23.5 69 4.2 N 15 20 8 11 1007.2 - 0.6
18/05:00pm 29.9 32.6 22.8 65 4.9 NNE 13 19 7 10 1007.6 - 0.6
18/04:30pm 29.8 32.7 23.1 67 4.6 N 13 20 7 11 1006.7 - 0.6
18/04:00pm 29.5 32.5 23.4 69 4.2 N 13 17 7 9 1006.3 - 0.4
18/03:30pm 29.0 32.6 23.7 73 3.7 N 11 17 6 9 1005.8 - 0.4
18/03:00pm 28.5 32.3 23.4 74 3.5 N 9 13 5 7 1006.3 - 0.4
18/02:30pm 28.1 31.4 23.8 77 3.0 NE 13 19 7 10 1006.9 - 0.4
18/02:00pm 28.0 31.2 23.1 74 3.4 NE 11 17 6 9 1007.0 - 0.4
18/01:30pm 28.1 31.6 23.6 76 3.1 NNE 11 17 6 9 1007.3 - 0.4
18/12:30pm 27.8 28.6 25.0 85 2.0 N 30 37 16 20 1007.6 - 0.0
18/12:00pm 31.4 34.8 23.3 62 5.6 N 11 17 6 9 1007.7 1006.4 0.0
18/11:30am 31.6 34.7 22.9 60 6.0 NNW 11 17 6 9 1008.1 - 0.0
18/11:00am 31.0 33.7 22.9 62 5.6 N 13 19 7 10 1008.7 - 0.0
18/10:30am 30.2 32.9 22.8 64 5.1 NNW 13 20 7 11 1009.3 - 0.0
18/10:00am 29.9 33.0 22.9 66 4.8 NNW 11 19 6 10 1009.5 - 0.0
18/09:30am 29.5 32.2 23.4 69 4.2 NW 15 20 8 11 1010.0 - 0.0
18/09:00am 28.6 31.5 23.2 72 3.7 NW 13 20 7 11 1010.1 - 46.2
18/08:30am 27.7 30.0 23.5 78 2.9 NNW 17 24 9 13 1010.2 - 46.2
18/08:00am 26.9 29.3 23.6 82 2.3 NNW 17 20 9 11 1010.3 - 46.2
18/07:30am 26.0 29.8 23.5 86 1.7 NW 9 15 5 8 1010.2 - 46.2
18/06:30am 24.8 28.7 23.6 93 0.8 N 9 11 5 6 1010.1 - 46.2
18/06:00am 24.5 28.8 23.6 95 0.6 N 7 9 4 5 1010.0 - 46.2
18/05:30am 24.2 28.5 23.6 96 0.4 NW 7 9 4 5 1009.9 - -
18/04:00am 23.9 27.4 23.5 98 0.3 N 11 13 6 7 1009.0 - 46.2
18/03:30am 23.8 28.0 23.4 98 0.3 N 7 11 4 6 1008.6 - 46.2
18/03:00am 23.9 27.7 23.5 98 0.3 N 9 11 5 6 1008.2 1006.9 46.2
18/02:00am 23.6 28.3 23.3 98 0.2 N 4 6 2 3 1007.6 - 45.8
18/01:08am 23.4 28.1 23.3 99 0.1 NNW 4 6 2 3 1007.8 - 45.4
18/01:00am 23.3 27.5 23.2 99 0.1 WNW 6 7 3 4 1007.9 - 45.4
18/12:37am 23.4 27.4 23.1 98 0.2 NW 7 9 4 5 1008.1 - 45.2
18/12:30am 23.4 27.4 23.1 98 0.2 NNW 7 9 4 5 1008.2 - 45.0
18/12:11am 23.3 27.2 23.0 98 0.2 NNW 7 9 4 5 1008.5 - 44.4
18/12:00am 23.3 26.8 22.9 98 0.3 N 9 11 5 6 1008.7 1007.4 44.0
 
Date/Time
WST
Temp
°C
App
Temp
°C
Dew
Point
°C
Rel
Hum
%
Delta-T
°C
Wind Press
QNH
hPa
Press
MSL
hPa
Rain since
9am
mm
Dir  Spd
km/h
Gust
km/h
Spd
kts
Gust
kts
17/11:54pm 23.2 27.1 22.9 98 0.2 N 7 11 4 6 1008.8 - 43.8
17/11:37pm 23.3 26.9 23.0 98 0.2 N 9 13 5 7 1009.3 - 42.8
17/11:30pm 23.2 25.9 22.8 98 0.3 N 13 17 7 9 1009.5 - 42.6
17/11:04pm 23.3 24.6 22.7 96 0.4 N 20 26 11 14 1009.9 - 39.8
17/11:00pm 23.3 24.2 22.7 96 0.4 N 22 26 12 14 1010.0 - 39.2
17/10:33pm 23.8 25.1 23.4 98 0.3 N 22 32 12 17 1010.4 - 36.2
17/10:30pm 23.7 24.6 23.3 98 0.3 N 24 32 13 17 1010.4 - 35.8
17/10:24pm 23.9 25.5 23.8 99 0.1 N 22 32 12 17 1010.4 - 35.2
17/10:00pm 24.1 25.8 24.0 99 0.1 N 22 28 12 15 1010.4 - 33.0
17/09:36pm 24.6 27.5 24.5 99 0.1 NNW 17 20 9 11 1010.8 - 22.2
17/09:32pm 24.7 27.5 24.3 98 0.3 NNW 17 20 9 11 1010.8 - 20.2
17/09:30pm 24.7 27.5 24.3 98 0.3 NNW 17 20 9 11 1010.8 - 20.2
17/09:00pm 25.3 30.2 24.3 94 0.7 WNW 6 11 3 6 1010.5 1009.2 16.8
17/08:51pm 25.7 31.4 25.0 96 0.5 SSW 4 15 2 8 1010.4 - 13.8
17/08:46pm 25.9 31.9 24.9 94 0.7 SSE 2 6 1 3 1010.2 - 11.6
17/08:30pm 25.9 31.0 24.6 92 0.9 SW 6 7 3 4 1010.0 - 11.6
17/08:00pm 25.9 30.9 24.5 92 1.0 NNW 6 9 3 5 1009.8 - 11.6
17/07:00pm 25.4 30.4 24.8 96 0.4 ENE 7 9 4 5 1008.6 - 11.6
17/06:30pm 25.6 30.9 24.9 96 0.5 ESE 6 7 3 4 1008.0 - 11.6
17/06:00pm 25.8 31.7 24.7 94 0.8 S 2 6 1 3 1007.6 1006.3 11.6
17/05:30pm 25.9 31.1 23.6 87 1.6 NNW 2 7 1 4 1007.4 - 11.2
17/05:00pm 25.7 29.9 24.1 91 1.1 NW 9 13 5 7 1007.2 - 11.0
17/04:30pm 25.6 28.9 23.9 90 1.2 N 13 17 7 9 1006.6 - 11.0
17/04:06pm 25.0 29.1 24.0 94 0.7 NE 9 11 5 6 1005.8 - 10.8
17/03:46pm 25.0 29.4 23.5 91 1.0 N 6 9 3 5 1006.0 - 10.0
17/03:42pm 24.9 29.4 23.6 92 0.9 N 6 9 3 5 1006.1 - 9.6
17/03:30pm 25.0 29.4 23.8 93 0.8 NNW 7 11 4 6 1006.0 - 9.2
17/03:14pm 25.1 29.5 23.8 92 0.9 NW 7 15 4 8 1006.2 - 6.8
17/03:03pm 26.4 27.5 23.0 81 2.3 NW 22 33 12 18 1006.5 - 2.2
17/03:00pm 28.6 29.6 22.8 71 4.0 WNW 22 28 12 15 1006.2 1004.9 0.2
17/02:30pm 32.8 32.2 19.7 46 8.7 WSW 22 32 12 17 1005.2 - 0.0
17/02:00pm 33.1 33.0 19.6 45 9.0 SW 19 32 10 17 1005.3 - 0.0
17/01:30pm 33.2 33.0 20.6 47 8.5 W 22 32 12 17 1005.4 - 0.0
17/01:00pm 30.8 33.6 23.0 63 5.4 S 13 22 7 12 1006.1 - 0.0
17/12:30pm 31.8 33.3 21.3 53 7.1 WSW 15 20 8 11 1006.9 - 0.0
17/12:00pm 32.4 33.7 21.7 53 7.3 WSW 17 26 9 14 1007.3 - 0.0
17/11:30am 31.5 33.8 22.0 57 6.5 W 13 17 7 9 1007.6 - 0.0
17/11:00am 31.3 34.4 22.1 58 6.3 W 9 19 5 10 1007.8 - 0.0
17/10:30am 30.5 33.6 22.2 61 5.7 W 9 17 5 9 1008.2 - 0.0
17/10:00am 30.3 32.9 22.7 64 5.2 SW 13 19 7 10 1008.5 - 0.0
17/09:30am 29.6 32.7 22.8 67 4.7 SW 11 17 6 9 1008.8 - 0.0
17/09:00am 29.5 32.4 22.5 66 4.8 SSW 11 13 6 7 1008.8 - 19.0
17/08:30am 28.9 29.9 22.1 66 4.6 SW 20 26 11 14 1008.7 - 19.0
17/08:00am 27.9 32.6 24.3 81 2.5 SSW 7 9 4 5 1008.8 - 19.0
17/07:30am 26.6 32.2 24.2 87 1.7 NE 2 7 1 4 1009.0 - 19.0
17/07:00am 26.1 30.9 24.1 89 1.4 N 6 9 3 5 1008.8 - 19.0
17/06:30am 25.5 30.1 24.1 92 1.0 N 7 9 4 5 1008.8 - 19.0
17/06:00am 25.0 29.7 24.0 94 0.7 NNE 6 - 3 - - 1007.2 -
17/05:30am 24.9 29.6 24.0 95 0.6 N 6 7 3 4 1008.1 - 19.0
17/05:13am 25.1 30.7 23.5 91 1.1 CALM 0 0 0 0 1007.8 - 19.0
17/05:00am 25.0 30.4 23.8 93 0.8 NNW 2 6 1 3 1007.7 - 19.0
17/04:30am 25.0 29.5 24.0 94 0.7 N 7 9 4 5 1007.4 - 19.0
17/03:59am 25.0 29.3 23.7 92 0.9 N 7 9 4 5 1007.3 - 19.0
17/03:30am 25.1 29.5 23.8 92 0.9 N 7 9 4 5 1007.3 - 19.0
17/03:00am 24.8 30.5 23.8 94 0.7 CALM 0 2 0 1 1007.1 1005.8 19.0
17/02:30am 24.7 29.7 23.8 95 0.6 WNW 4 6 2 3 1007.0 - 19.0
17/02:00am 24.5 28.9 23.8 96 0.5 N 7 9 4 5 1006.8 - 19.0
17/01:30am 24.4 28.0 23.7 96 0.5 N 11 15 6 8 1006.7 - 19.0
17/01:00am 24.3 28.3 23.7 96 0.4 N 9 11 5 6 1006.9 - 19.0
17/12:30am 24.3 29.0 23.9 98 0.3 NNE 6 9 3 5 1006.9 - 19.0
17/12:00am 24.3 29.2 23.6 96 0.5 N 4 7 2 4 1007.3 1006.0 18.8
 
Date/Time
WST
Temp
°C
App
Temp
°C
Dew
Point
°C
Rel
Hum
%
Delta-T
°C
Wind Press
QNH
hPa
Press
MSL
hPa
Rain since
9am
mm
Dir  Spd
km/h
Gust
km/h
Spd
kts
Gust
kts
16/11:30pm 24.2 28.5 23.6 96 0.4 SSE 7 11 4 6 1007.7 - 18.8
16/11:00pm 24.2 28.7 23.6 96 0.4 S 6 9 3 5 1008.1 - 18.8
16/10:30pm 24.6 29.9 23.7 95 0.6 W 2 6 1 3 1008.5 - 18.8
16/10:00pm 24.7 29.1 23.8 95 0.6 W 7 9 4 5 1008.7 - 18.8
16/09:30pm 24.7 28.5 23.5 93 0.8 NW 9 11 5 6 1008.9 - 18.8
16/09:00pm 24.5 30.2 23.8 96 0.5 CALM 0 0 0 0 1009.0 1007.7 18.8
16/08:30pm 24.4 28.8 23.5 95 0.6 W 6 9 3 5 1009.0 - 18.8
16/08:00pm 24.2 29.3 23.3 95 0.6 S 2 7 1 4 1008.7 - 18.8
16/07:30pm 24.3 28.6 23.6 96 0.5 WSW 7 11 4 6 1008.1 - 18.8
16/07:00pm 24.1 27.9 23.4 96 0.5 NNW 9 15 5 8 1007.9 - 18.6
16/06:30pm 23.8 26.2 22.9 95 0.6 WNW 15 24 8 13 1008.0 - 17.2
16/06:08pm 24.0 25.6 22.8 93 0.8 SW 19 32 10 17 1007.9 - 15.6
16/06:00pm 24.1 25.7 22.8 92 0.9 SW 19 32 10 17 1008.2 1006.9 14.8
16/05:52pm 23.9 25.4 22.7 93 0.8 WSW 19 24 10 13 1008.3 - 14.2
16/05:47pm 24.2 25.8 23.3 95 0.6 SW 20 22 11 12 1008.3 - 13.2
16/05:30pm 23.6 26.0 22.3 92 0.9 N 13 20 7 11 1007.4 - 12.8
16/05:13pm 24.2 24.7 22.6 91 1.1 W 24 33 13 18 1007.4 - 3.2
16/05:08pm 25.7 26.7 22.9 84 1.9 W 22 32 12 17 1007.3 - 2.0
16/05:00pm 27.2 31.5 24.9 87 1.6 WNW 11 15 6 8 1007.2 - 1.6
16/04:30pm 27.1 30.8 24.5 86 1.8 N 13 17 7 9 1006.5 - 1.6
16/04:00pm 27.2 30.9 24.5 85 1.9 N 13 17 7 9 1006.6 - 1.6
16/03:30pm 26.9 30.9 25.1 90 1.3 NNW 13 17 7 9 1006.6 - 1.6
16/03:00pm 27.0 31.7 24.9 88 1.5 N 9 11 5 6 1006.3 1005.0 1.6
16/02:30pm 26.4 30.7 24.2 88 1.5 NNE 9 11 5 6 1006.3 - 1.6
16/02:00pm 25.6 29.7 24.6 94 0.7 E 11 15 6 8 1006.1 - 1.6
16/01:30pm 25.4 29.5 24.5 95 0.6 ESE 11 15 6 8 1006.4 - 1.2
16/01:00pm 26.0 29.9 24.3 90 1.2 SE 11 17 6 9 1007.1 - 0.6
16/12:30pm 28.2 30.1 22.8 72 3.7 SSW 17 30 9 16 1007.4 - 0.0
16/12:00pm 31.3 35.8 23.9 64 5.2 W 7 11 4 6 1007.0 1005.7 0.0
16/11:30am 31.0 35.1 24.5 68 4.6 S 11 15 6 8 1007.3 - 0.0
16/11:00am 30.7 36.1 25.4 73 3.8 SW 7 13 4 7 1007.7 - 0.0
16/10:30am 29.5 34.6 25.0 77 3.2 WSW 7 11 4 6 1008.1 - 0.0

Other Formats:

Comma delimited format used in spreadsheet applications
http://www.bom.gov.au/fwo/IDW60801/IDW60801.94217.axf

JavaScript Object Notation format (JSON) in row-major order
http://www.bom.gov.au/fwo/IDW60801/IDW60801.94217.json